Terminal Aerodrome Forecast
Issued by NWS Wichita, KS

Home | Current Version | Previous Version | Graphics & Text | Print | Product List | Glossary On
Versions: 1 2 3 4 5 6 7 8 9 10 11 12 13 14 15 16 17 18 19 20 21 22 23 24 25 26 27 28
699
FTUS43 KICT 250522
TAFICT
TAF
KICT 250522Z 2506/2606 08010KT 6SM -TSRA SCT020 OVC040CB
      TEMPO 2506/2509 VRB20G35KT 3SM +TSRA OVC020CB
     FM250900 13016G23KT P6SM VCTS BKN030CB
     FM251600 18019G27KT P6SM BKN035=

USA.gov is the U.S. government's official web portal to all federal, state and local government web resources and services.